Brookville, Pennsylvania
Current Conditions -  °F | °C
As of 9:53 PM on Friday 28 Nov 2014 (Local Time) from KDUJ Reporting Station
Broken Clouds Broken Clouds  
Wind Chill: -7°   Ceiling: 11000
Heat Index: -7°   Visibility: 10mi
Dew Point: -11°   Wind: 0mph
Humidity: 74%   Direction: NA
Pressure: 30.15"   Gusts: NA
Location:  41.16°N, 79.08°W
Report Text: KDUJ 290253Z AUTO 00000KT 10SM FEW026 BKN110 M07/M11 A3015 RMK AO2 SLP236 T10721111 56008
Loading
Personal Weather Stations






























Interactive Weather Map New forecast layout! Learn more

10-Day Weather Forecast

Advertisements
Track Severe Weather on mobile